Time;durP1;ratioP1;P1;durP2;ratioP2;P2;SDS_P1;SDS_P2;PMS_P1;PMS_P2;Temp;Humidity;BMP_temperature;BMP_pressure;BME280_temperature;BME280_humidity;BME280_pressure;Samples;Min_cycle;Max_cycle;Signal;HPM_P1;HPM_P2
2023/05/10 00:01:47;;;;;;;10.23;6.00;;;;;;;10.81;73.28;101333.66;5075552;28;20401;-81
2023/05/10 00:04:12;;;;;;;13.52;5.65;;;;;;;10.83;72.83;101336.22;5073713;28;20020;-79
2023/05/10 00:06:38;;;;;;;22.70;6.85;;;;;;;10.85;72.70;101324.41;5073622;28;20089;-82
2023/05/10 00:09:03;;;;;;;16.42;6.10;;;;;;;10.86;72.98;101336.00;5073817;28;20493;-79
2023/05/10 00:11:29;;;;;;;10.82;5.68;;;;;;;10.96;72.92;101341.59;5073906;28;20721;-79
2023/05/10 00:13:54;;;;;;;14.80;5.90;;;;;;;10.91;72.27;101326.66;5073754;28;20020;-77
2023/05/10 00:16:20;;;;;;;15.73;5.65;;;;;;;10.80;72.16;101314.91;5073741;28;20097;-82
2023/05/10 00:18:45;;;;;;;9.73;5.60;;;;;;;10.83;71.93;101312.00;5074564;28;20104;-79
2023/05/10 00:21:11;;;;;;;14.65;6.10;;;;;;;10.98;71.79;101339.69;5074283;28;20467;-81
2023/05/10 00:23:37;;;;;;;13.20;5.65;;;;;;;10.83;71.78;101317.41;5074923;28;20067;-79
2023/05/10 00:26:02;;;;;;;12.23;5.20;;;;;;;10.82;72.21;101326.47;5074200;28;21027;-79
2023/05/10 00:28:28;;;;;;;14.98;5.60;;;;;;;10.83;72.55;101329.03;5074869;28;20065;-80
2023/05/10 00:30:54;;;;;;;17.00;5.57;;;;;;;10.84;71.98;101320.00;5074811;28;20032;-80
2023/05/10 00:33:19;;;;;;;10.82;6.45;;;;;;;10.81;72.03;101317.53;5073405;28;20479;-79
2023/05/10 00:35:45;;;;;;;16.15;6.05;;;;;;;10.85;72.49;101328.94;5073508;28;20043;-79
2023/05/10 00:38:10;;;;;;;7.57;5.43;;;;;;;10.81;72.80;101344.44;5073962;28;20060;-81
2023/05/10 00:40:37;;;;;;;16.23;6.28;;;;;;;10.80;72.73;101337.31;5073670;28;20025;-84
2023/05/10 00:43:02;;;;;;;10.00;5.68;;;;;;;10.77;72.97;101334.84;5072900;28;20115;-82
2023/05/10 00:45:30;;;;;;;19.20;6.10;;;;;;;10.81;73.47;101328.28;5072844;28;20159;-80
2023/05/10 00:47:55;;;;;;;15.15;5.72;;;;;;;10.88;72.15;101324.19;5072749;28;20031;-79
2023/05/10 00:50:24;;;;;;;9.77;6.07;;;;;;;10.87;71.81;101329.66;5071616;28;20581;-79
2023/05/10 00:52:50;;;;;;;15.15;5.80;;;;;;;10.82;71.92;101324.59;5071823;28;20036;-87
2023/05/10 00:55:16;;;;;;;12.57;6.32;;;;;;;10.59;72.32;101321.81;5072752;28;20020;-79
2023/05/10 00:57:42;;;;;;;24.60;6.30;;;;;;;10.61;72.53;101309.16;5072706;28;20027;-78
2023/05/10 01:00:08;;;;;;;7.25;5.88;;;;;;;10.58;72.48;101307.50;5073404;28;20031;-79
2023/05/10 01:02:35;;;;;;;9.20;5.47;;;;;;;10.68;72.52;101322.03;5074241;28;20028;-79
2023/05/10 01:05:03;;;;;;;14.45;6.28;;;;;;;10.60;72.71;101308.28;5074254;28;20063;-79
2023/05/10 01:07:28;;;;;;;10.85;6.60;;;;;;;10.56;73.04;101296.00;5073384;28;20032;-79
2023/05/10 01:09:54;;;;;;;15.32;5.72;;;;;;;10.64;72.70;101309.78;5072266;28;20100;-79
2023/05/10 01:12:20;;;;;;;8.73;5.80;;;;;;;10.63;72.64;101302.69;5073113;28;20096;-82
2023/05/10 01:14:46;;;;;;;18.38;6.43;;;;;;;10.65;72.67;101311.50;5072776;28;20468;-78
2023/05/10 01:17:13;;;;;;;14.07;5.88;;;;;;;10.65;72.66;101321.41;5072287;28;20032;-82
2023/05/10 01:19:39;;;;;;;13.70;7.35;;;;;;;10.63;72.94;101312.59;5071994;28;20028;-80
2023/05/10 01:22:10;;;;;;;11.65;7.05;;;;;;;10.71;73.08;101329.03;5071652;28;20090;-80
2023/05/10 01:25:08;;;;;;;13.90;5.95;;;;;;;10.65;72.66;101324.09;5073574;28;20442;-80
2023/05/10 01:27:51;;;;;;;11.43;6.70;;;;;;;10.48;72.61;101298.38;5072826;28;20021;-80
2023/05/10 01:30:16;;;;;;;;;;;;;;;10.59;72.89;101322.69;5073384;28;20021;-80
2023/05/10 01:33:01;;;;;;;20.77;8.02;;;;;;;10.40;73.02;101300.75;5075379;28;20294;-79
2023/05/10 01:35:34;;;;;;;13.60;7.00;;;;;;;10.21;73.89;101274.28;5054178;28;20133;-80
2023/05/10 01:38:18;;;;;;;17.33;7.78;;;;;;;10.48;74.35;101324.41;5071327;28;20048;-82
2023/05/10 01:40:51;;;;;;;13.57;8.23;;;;;;;10.43;74.42;101326.56;5070222;28;20020;-83
2023/05/10 01:43:26;;;;;;;15.32;7.70;;;;;;;10.40;74.33;101313.34;5071366;28;20036;-81
2023/05/10 01:46:13;;;;;;;15.00;7.30;;;;;;;10.46;74.10;101316.44;5071689;28;20474;-79
2023/05/10 01:48:48;;;;;;;14.90;7.88;;;;;;;10.33;74.50;101315.59;5068753;28;20055;-81
2023/05/10 01:51:21;;;;;;;22.95;7.80;;;;;;;10.26;74.56;101319.66;5070938;28;20491;-81
2023/05/10 01:53:48;;;;;;;20.90;8.77;;;;;;;9.92;75.33;101261.09;5071293;28;20107;-80
2023/05/10 01:56:16;;;;;;;27.10;11.35;;;;;;;10.09;75.45;101283.16;5072347;28;20029;-80
2023/05/10 01:58:45;;;;;;;28.30;9.38;;;;;;;10.23;74.89;101310.00;5071662;28;20082;-78
2023/05/10 02:01:12;;;;;;;15.73;9.32;;;;;;;10.19;75.19;101315.66;5071239;28;20526;-79
2023/05/10 02:03:39;;;;;;;25.92;9.60;;;;;;;10.15;75.04;101312.31;5071018;28;20032;-79
2023/05/10 02:06:06;;;;;;;14.50;9.27;;;;;;;9.96;75.57;101290.34;5069738;28;20476;-80
2023/05/10 02:08:35;;;;;;;22.52;10.38;;;;;;;10.05;75.68;101313.03;5071442;28;20028;-80
2023/05/10 02:11:02;;;;;;;20.13;9.82;;;;;;;9.95;75.97;101290.44;5071406;28;20025;-79
2023/05/10 02:13:29;;;;;;;19.15;9.13;;;;;;;9.98;75.86;101309.91;5071842;28;20033;-80
2023/05/10 02:15:57;;;;;;;21.13;10.50;;;;;;;9.95;75.98;101303.88;5072342;28;20035;-79
2023/05/10 02:18:25;;;;;;;20.42;9.52;;;;;;;9.92;76.21;101312.16;5073417;28;20108;-79
2023/05/10 02:20:53;;;;;;;17.73;10.02;;;;;;;9.82;76.52;101315.47;5073681;28;20028;-79
2023/05/10 02:23:21;;;;;;;23.73;10.68;;;;;;;9.76;76.66;101305.13;5074307;28;20036;-81
2023/05/10 02:25:48;;;;;;;16.30;9.45;;;;;;;9.63;77.26;101295.31;5071699;28;20028;-79
2023/05/10 02:28:15;;;;;;;13.43;9.65;;;;;;;9.72;77.17;101303.59;5071330;28;20031;-81
2023/05/10 02:30:41;;;;;;;23.17;9.85;;;;;;;9.55;77.15;101284.22;5074797;28;20080;-79
2023/05/10 02:33:07;;;;;;;23.55;11.98;;;;;;;9.63;77.50;101308.75;5072551;28;20108;-79
2023/05/10 02:35:34;;;;;;;24.80;11.70;;;;;;;9.73;77.72;101321.44;5071366;28;20028;-80
2023/05/10 02:38:01;;;;;;;78.13;18.13;;;;;;;9.63;77.65;101301.53;5071678;28;20102;-79
2023/05/10 02:40:27;;;;;;;23.45;10.77;;;;;;;9.52;77.77;101296.03;5072853;28;20024;-79
2023/05/10 02:42:56;;;;;;;17.15;10.23;;;;;;;9.39;77.87;101279.00;5072761;28;20094;-78
2023/05/10 02:45:26;;;;;;;24.90;10.70;;;;;;;9.39;78.09;101289.72;5074582;28;20081;-79
2023/05/10 02:47:51;;;;;;;17.85;11.27;;;;;;;9.53;78.74;101319.25;5070145;28;20089;-80
2023/05/10 02:50:18;;;;;;;24.60;11.85;;;;;;;9.14;79.01;101276.22;5070216;28;20024;-81
2023/05/10 02:52:47;;;;;;;29.33;12.05;;;;;;;9.37;79.21;101310.47;5070194;28;20399;-79
2023/05/10 02:55:16;;;;;;;19.15;11.23;;;;;;;9.42;79.06;101316.38;5070567;28;20107;-79
2023/05/10 02:58:02;;;;;;;35.30;12.95;;;;;;;9.38;79.61;101325.63;5070243;28;20028;-81
2023/05/10 03:00:28;;;;;;;21.40;11.80;;;;;;;9.26;79.88;101310.31;5070147;28;20422;-79
2023/05/10 03:02:54;;;;;;;16.23;11.13;;;;;;;9.21;79.73;101281.06;5070653;28;20036;-80
2023/05/10 03:05:20;;;;;;;25.65;11.68;;;;;;;9.28;79.68;101297.63;5070721;28;20036;-81
2023/05/10 03:07:46;;;;;;;23.20;12.07;;;;;;;9.35;79.61;101301.66;5070479;28;20021;-80
2023/05/10 03:10:12;;;;;;;20.63;11.40;;;;;;;9.29;79.43;101302.06;5070699;28;20483;-80
2023/05/10 03:13:15;;;;;;;16.15;11.10;;;;;;;9.48;79.38;101328.56;5070912;28;20039;-80
2023/05/10 03:15:48;;;;;;;19.35;10.70;;;;;;;9.28;79.70;101286.91;5070512;28;20053;-78
2023/05/10 03:18:32;;;;;;;17.70;11.15;;;;;;;9.59;79.41;101339.44;5070756;28;20028;-79
2023/05/10 03:21:06;;;;;;;26.50;10.93;;;;;;;9.62;79.47;101333.88;5070956;28;20115;-86
2023/05/10 03:23:39;;;;;;;19.70;12.15;;;;;;;9.54;79.67;101314.72;5071524;28;20564;-81
2023/05/10 03:26:07;;;;;;;25.00;10.82;;;;;;;9.51;79.39;101299.66;5074020;28;20029;-80
2023/05/10 03:28:34;;;;;;;31.25;13.45;;;;;;;9.77;79.50;101333.72;5075275;28;20040;-81
2023/05/10 03:31:02;;;;;;;22.92;11.38;;;;;;;9.77;79.54;101332.84;5070647;28;20074;-81
2023/05/10 03:33:27;;;;;;;18.88;11.15;;;;;;;9.81;79.18;101324.47;5069875;28;20029;-80
2023/05/10 03:35:53;;;;;;;14.80;10.75;;;;;;;9.88;79.30;101318.72;5069107;28;20035;-80
2023/05/10 03:38:18;;;;;;;20.10;9.40;;;;;;;9.94;78.93;101321.81;5069526;28;20054;-83
2023/05/10 03:40:44;;;;;;;26.33;11.48;;;;;;;10.01;78.90;101333.88;5069824;28;20021;-83
2023/05/10 03:43:09;;;;;;;23.60;12.52;;;;;;;10.00;78.88;101317.88;5069042;28;20132;-81
2023/05/10 03:45:35;;;;;;;24.35;11.30;;;;;;;10.02;79.33;101315.94;5069060;28;20143;-80
2023/05/10 03:48:01;;;;;;;51.92;11.10;;;;;;;10.18;78.93;101330.09;5068974;28;20037;-80
2023/05/10 03:50:26;;;;;;;21.55;11.10;;;;;;;10.24;78.67;101321.63;5069138;28;20696;-80
2023/05/10 03:52:52;;;;;;;31.80;10.57;;;;;;;10.24;78.51;101310.84;5069164;28;20517;-80
2023/05/10 03:55:17;;;;;;;30.02;12.43;;;;;;;10.47;78.25;101342.38;5069072;28;20037;-83
2023/05/10 03:57:43;;;;;;;21.67;11.13;;;;;;;10.55;78.06;101342.69;5069545;28;20075;-80
2023/05/10 04:00:09;;;;;;;23.42;9.65;;;;;;;10.60;77.60;101340.56;5069021;28;20036;-81
2023/05/10 04:02:35;;;;;;;20.98;9.07;;;;;;;10.58;77.47;101331.72;5068945;28;20035;-83
2023/05/10 04:05:00;;;;;;;32.47;10.02;;;;;;;10.70;77.67;101344.31;5068780;28;20029;-81
2023/05/10 04:07:26;;;;;;;15.20;8.43;;;;;;;10.72;77.64;101334.31;5069098;28;20109;-81
2023/05/10 04:09:52;;;;;;;33.33;10.10;;;;;;;10.80;77.41;101334.63;5050751;28;20458;-79
2023/05/10 04:12:17;;;;;;;27.88;9.38;;;;;;;10.83;77.38;101330.84;5048850;28;20073;-79
2023/05/10 04:14:43;;;;;;;41.97;11.23;;;;;;;10.95;77.46;101339.91;5055191;28;20035;-80
2023/05/10 04:17:08;;;;;;;18.25;9.20;;;;;;;10.97;77.22;101328.06;5071487;28;20032;-79
2023/05/10 04:19:34;;;;;;;63.58;12.23;;;;;;;11.14;76.98;101341.13;5073408;28;20115;-78
2023/05/10 04:21:59;;;;;;;38.00;10.60;;;;;;;11.22;77.28;101343.28;5074587;28;20755;-79
2023/05/10 04:24:25;;;;;;;38.38;10.75;;;;;;;11.28;77.17;101337.47;5076967;28;20051;-80
2023/05/10 04:26:51;;;;;;;52.38;12.02;;;;;;;11.06;77.23;101299.59;5072405;28;20193;-86
2023/05/10 04:29:16;;;;;;;32.00;10.25;;;;;;;11.15;76.86;101307.00;5072403;28;20052;-80
2023/05/10 04:31:42;;;;;;;15.52;9.32;;;;;;;11.49;76.69;101346.66;5072243;28;20496;-80
2023/05/10 04:34:07;;;;;;;34.78;10.52;;;;;;;11.41;76.50;101317.56;5071905;28;20024;-87
2023/05/10 04:36:35;;;;;;;16.77;8.45;;;;;;;11.58;76.16;101339.72;5072526;28;20028;-78
2023/05/10 04:39:02;;;;;;;22.23;7.88;;;;;;;11.70;76.22;101331.63;5072852;28;20051;-84
2023/05/10 04:41:27;;;;;;;22.67;6.95;;;;;;;11.74;75.47;101325.00;5078302;28;20027;-82
2023/05/10 04:43:53;;;;;;;20.35;8.35;;;;;;;11.76;75.40;101312.28;5073841;28;20037;-84
2023/05/10 04:46:18;;;;;;;30.13;9.13;;;;;;;12.01;74.54;101332.88;5072977;28;20032;-81
2023/05/10 04:48:44;;;;;;;22.58;6.80;;;;;;;12.10;74.54;101331.28;5071203;28;20365;-82
2023/05/10 04:51:09;;;;;;;12.38;6.47;;;;;;;12.28;74.23;101340.66;5071388;28;20032;-81
2023/05/10 04:53:35;;;;;;;20.10;6.20;;;;;;;12.11;73.50;101297.97;5072379;28;20090;-81
2023/05/10 04:56:01;;;;;;;36.05;7.65;;;;;;;12.34;73.29;101321.31;5073902;28;20024;-84
2023/05/10 04:58:26;;;;;;;18.95;5.55;;;;;;;12.42;72.75;101311.63;5073828;28;20028;-82
2023/05/10 05:00:52;;;;;;;44.65;5.95;;;;;;;12.41;72.24;101287.50;5074013;28;20035;-82
2023/05/10 05:03:17;;;;;;;34.15;9.57;;;;;;;12.59;71.90;101296.84;5075188;28;20034;-81
2023/05/10 05:05:44;;;;;;;17.73;5.70;;;;;;;12.93;71.35;101327.41;5076965;28;20060;-84
2023/05/10 05:08:09;;;;;;;33.67;7.40;;;;;;;12.97;70.59;101310.81;5072666;28;20028;-81
2023/05/10 05:10:35;;;;;;;25.08;6.70;;;;;;;13.04;69.25;101309.34;5073207;28;20027;-82
2023/05/10 05:13:00;;;;;;;29.35;5.53;;;;;;;13.18;68.81;101323.63;5074822;28;20388;-82
2023/05/10 05:15:26;;;;;;;10.75;3.70;;;;;;;13.29;68.09;101315.50;5075373;28;20028;-83
2023/05/10 05:17:51;;;;;;;23.00;4.60;;;;;;;13.37;67.68;101319.28;5082334;28;20021;-81
2023/05/10 05:20:18;;;;;;;45.63;7.88;;;;;;;13.35;66.82;101315.84;5080911;28;20024;-79
2023/05/10 05:22:44;;;;;;;41.28;6.57;;;;;;;13.36;65.98;101314.00;5078653;28;20082;-86
2023/05/10 05:25:11;;;;;;;16.20;5.28;;;;;;;13.46;65.65;101328.47;5072271;28;20025;-83
2023/05/10 05:27:36;;;;;;;22.40;5.43;;;;;;;13.51;65.43;101312.75;5072758;28;20032;-87
2023/05/10 05:30:02;;;;;;;11.93;4.43;;;;;;;13.54;65.33;101307.94;5072051;28;20439;-79
2023/05/10 05:32:28;;;;;;;19.27;5.10;;;;;;;13.82;64.99;101328.09;5070436;28;20028;-81
2023/05/10 05:34:53;;;;;;;25.65;5.35;;;;;;;13.66;64.38;101289.84;5069201;28;20020;-79
2023/05/10 05:37:21;;;;;;;40.22;6.60;;;;;;;14.10;64.96;101322.09;5070158;28;20041;-82
2023/05/10 05:39:47;;;;;;;14.07;4.53;;;;;;;14.12;64.28;101320.13;5072691;28;20024;-90
2023/05/10 05:42:13;;;;;;;32.42;5.57;;;;;;;14.16;64.10;101326.97;5075929;28;20525;-86
2023/05/10 05:44:39;;;;;;;6.43;2.92;;;;;;;14.07;63.46;101330.47;5071692;28;20032;-90
2023/05/10 05:47:05;;;;;;;12.30;4.05;;;;;;;14.03;63.71;101325.47;5071646;28;20031;-84
2023/05/10 05:49:32;;;;;;;17.92;4.10;;;;;;;14.10;63.33;101330.19;5072190;28;20044;-88
2023/05/10 05:52:01;;;;;;;14.60;5.63;;;;;;;14.13;63.53;101327.25;5074930;28;20028;-88
2023/05/10 05:54:27;;;;;;;18.90;4.35;;;;;;;14.16;62.63;101304.47;5074281;28;20032;-89
2023/05/10 05:56:56;;;;;;;19.70;5.03;;;;;;;14.44;62.41;101338.16;5074807;28;20039;-87
2023/05/10 05:59:22;;;;;;;24.92;5.53;;;;;;;14.51;62.01;101323.13;5074571;28;20021;-89
2023/05/10 06:01:48;;;;;;;11.23;3.83;;;;;;;14.59;61.25;101340.41;5072060;28;20384;-87
2023/05/10 06:04:13;;;;;;;11.93;3.40;;;;;;;14.62;60.94;101328.44;5072253;28;20675;-88
2023/05/10 06:06:39;;;;;;;24.75;4.90;;;;;;;14.67;61.02;101315.38;5071314;28;20035;-86
2023/05/10 06:09:04;;;;;;;16.15;5.25;;;;;;;14.65;60.81;101328.19;5073989;28;20451;-88
2023/05/10 06:11:31;;;;;;;21.25;6.38;;;;;;;14.68;60.63;101322.50;5075320;28;20039;-88
2023/05/10 06:13:58;;;;;;;11.57;4.05;;;;;;;14.67;60.39;101320.81;5085181;28;20074;-92
2023/05/10 06:16:23;;;;;;;12.38;4.22;;;;;;;14.72;59.58;101323.97;5093660;28;20063;-90
2023/05/10 06:18:49;;;;;;;12.88;5.30;;;;;;;14.76;60.24;101329.97;5086953;28;20033;-88
2023/05/10 06:21:16;;;;;;;13.38;5.40;;;;;;;14.70;60.71;101347.63;5070177;28;20042;-86
2023/05/10 06:23:41;;;;;;;17.05;4.07;;;;;;;14.65;60.62;101339.00;5069532;28;20031;-88
2023/05/10 06:26:07;;;;;;;13.10;4.85;;;;;;;14.55;60.92;101338.13;5070581;28;20029;-87
2023/05/10 06:28:33;;;;;;;14.40;4.72;;;;;;;14.56;60.87;101339.81;5069197;28;20551;-89
2023/05/10 06:30:59;;;;;;;16.50;5.13;;;;;;;14.53;60.42;101324.69;5070314;28;20414;-87
2023/05/10 06:33:24;;;;;;;47.58;11.38;;;;;;;14.76;60.50;101325.41;5069173;28;20085;-88
2023/05/10 06:35:50;;;;;;;10.93;5.78;;;;;;;14.87;59.70;101322.59;5069249;28;20035;-89
2023/05/10 06:38:15;;;;;;;10.73;6.18;;;;;;;14.86;58.50;101310.06;5070354;28;20060;-89
2023/05/10 06:40:42;;;;;;;20.55;4.55;;;;;;;15.06;58.29;101349.78;5069759;28;20071;-89
2023/05/10 06:43:07;;;;;;;18.30;5.65;;;;;;;14.95;58.71;101325.50;5069934;28;20136;-90
2023/05/10 06:45:33;;;;;;;12.38;4.63;;;;;;;14.97;59.01;101325.38;5075877;28;20559;-89
2023/05/10 06:47:58;;;;;;;13.85;4.28;;;;;;;15.16;58.38;101342.56;5071943;28;20036;-87
2023/05/10 06:50:23;;;;;;;18.15;5.22;;;;;;;15.12;57.41;101348.38;5071388;28;20029;-87
2023/05/10 06:52:49;;;;;;;13.82;4.28;;;;;;;15.04;57.64;101332.81;5072031;28;20028;-88
2023/05/10 06:55:15;;;;;;;9.77;3.95;;;;;;;14.96;58.25;101348.88;5072168;28;20482;-88
2023/05/10 06:57:40;;;;;;;15.25;4.57;;;;;;;15.03;57.17;101343.78;5071724;28;20028;-88
2023/05/10 07:00:06;;;;;;;15.15;4.38;;;;;;;14.87;57.75;101333.44;5077878;28;20100;-86
2023/05/10 07:02:32;;;;;;;30.23;5.13;;;;;;;15.03;57.25;101331.09;5067938;28;20037;-85
2023/05/10 07:04:57;;;;;;;34.20;5.43;;;;;;;15.09;57.09;101332.41;5046221;28;20033;-88
2023/05/10 07:07:23;;;;;;;12.52;4.30;;;;;;;15.03;56.55;101320.25;5073763;28;20032;-90
2023/05/10 07:09:49;;;;;;;9.02;3.55;;;;;;;15.17;56.40;101319.88;5063134;28;20023;-88
2023/05/10 07:12:15;;;;;;;12.73;4.40;;;;;;;15.33;56.73;101341.03;5074065;28;20079;-92
2023/05/10 07:14:40;;;;;;;12.55;4.32;;;;;;;15.24;56.37;101342.72;5053431;28;20590;-88
2023/05/10 07:17:06;;;;;;;30.80;5.18;;;;;;;15.11;56.74;101325.84;5049189;28;20067;-87
2023/05/10 07:19:32;;;;;;;33.13;7.68;;;;;;;15.22;56.52;101322.19;5049352;28;20514;-88
2023/05/10 07:21:58;;;;;;;10.32;4.10;;;;;;;15.40;57.08;101349.47;5033032;28;20037;-87
2023/05/10 07:24:24;;;;;;;18.20;4.30;;;;;;;15.32;56.76;101349.31;5052897;28;20059;-87
2023/05/10 07:26:49;;;;;;;7.80;3.78;;;;;;;15.66;56.88;101353.44;5033698;28;20048;-87
2023/05/10 07:29:15;;;;;;;20.08;5.80;;;;;;;15.90;57.26;101344.91;5050533;28;20037;-89
2023/05/10 07:31:44;;;;;;;27.50;5.75;;;;;;;16.22;55.65;101353.63;5049723;28;20031;-89
2023/05/10 07:34:09;;;;;;;32.45;6.05;;;;;;;16.42;55.70;101362.63;5066882;28;20043;-89
2023/05/10 07:36:35;;;;;;;22.67;3.95;;;;;;;16.13;56.38;101360.78;5070844;28;20029;-87
2023/05/10 07:39:01;;;;;;;17.52;4.25;;;;;;;15.96;57.35;101364.16;5073392;28;20114;-88
2023/05/10 07:41:27;;;;;;;53.92;8.30;;;;;;;16.16;57.26;101363.19;5072445;28;20100;-88
2023/05/10 07:43:52;;;;;;;9.25;4.00;;;;;;;15.93;57.24;101371.75;5071774;28;20071;-88
2023/05/10 07:46:19;;;;;;;10.75;4.25;;;;;;;15.83;57.77;101371.75;5070171;28;20388;-90
2023/05/10 07:48:45;;;;;;;28.42;4.93;;;;;;;15.50;59.25;101369.41;5073527;28;20029;-87
2023/05/10 07:51:10;;;;;;;15.35;5.57;;;;;;;15.83;59.31;101387.16;5075399;28;20033;-88
2023/05/10 07:53:36;;;;;;;8.27;3.53;;;;;;;15.67;59.32;101366.00;5075333;28;20389;-89
2023/05/10 07:56:21;;;;;;;14.25;4.03;;;;;;;15.59;59.97;101363.13;5077181;28;20032;-88
2023/05/10 07:58:46;;;;;;;16.08;4.30;;;;;;;15.30;60.61;101345.88;5078153;28;20029;-88
2023/05/10 08:01:12;;;;;;;27.70;6.97;;;;;;;15.62;60.72;101365.56;5077910;28;20093;-88
2023/05/10 08:03:37;;;;;;;16.80;5.70;;;;;;;15.81;59.12;101354.72;5083780;28;20472;-88
2023/05/10 08:06:06;;;;;;;15.75;4.40;;;;;;;15.80;57.63;101377.44;5082273;28;20056;-88
2023/05/10 08:08:31;;;;;;;47.78;5.75;;;;;;;15.72;56.90;101355.56;5096962;28;20092;-89
2023/05/10 08:10:57;;;;;;;21.98;4.97;;;;;;;15.83;57.30;101377.16;5094947;28;20043;-90
2023/05/10 08:13:23;;;;;;;15.27;3.53;;;;;;;15.95;56.16;101365.19;5081483;28;20032;-87
2023/05/10 08:15:49;;;;;;;40.13;5.38;;;;;;;16.29;55.03;101360.19;5077240;28;20035;-88
2023/05/10 08:18:14;;;;;;;24.67;5.03;;;;;;;16.50;54.68;101365.47;5078188;28;20025;-88
2023/05/10 08:20:40;;;;;;;11.65;4.00;;;;;;;16.26;54.52;101353.22;5076970;28;20048;-89
2023/05/10 08:23:05;;;;;;;32.33;5.40;;;;;;;16.48;54.51;101373.75;5077696;28;20081;-90
2023/05/10 08:25:31;;;;;;;11.18;3.72;;;;;;;16.63;55.60;101376.91;5076857;28;20123;-88
2023/05/10 08:27:57;;;;;;;4.63;3.08;;;;;;;16.71;56.17;101371.59;5076975;28;20089;-87
2023/05/10 08:30:23;;;;;;;8.75;3.88;;;;;;;16.66;57.17;101372.06;5078368;28;20088;-89
2023/05/10 08:32:50;;;;;;;11.82;3.80;;;;;;;16.59;55.84;101368.19;5077805;28;20536;-90
2023/05/10 08:35:16;;;;;;;29.02;5.32;;;;;;;16.41;56.56;101372.63;5076348;28;21053;-88
2023/05/10 08:37:41;;;;;;;20.63;7.43;;;;;;;16.24;56.92;101352.47;5082406;28;20063;-89
2023/05/10 08:40:11;;;;;;;13.98;3.72;;;;;;;16.47;58.29;101382.03;5076424;28;20026;-88
2023/05/10 08:42:40;;;;;;;8.27;3.70;;;;;;;16.09;58.18;101345.75;5062840;28;20499;-88
2023/05/10 08:45:07;;;;;;;12.48;3.50;;;;;;;16.00;58.64;101368.31;5082833;28;20031;-90
2023/05/10 08:47:35;;;;;;;32.53;5.55;;;;;;;16.11;59.34;101392.63;5074900;28;20484;-91
2023/05/10 08:50:03;;;;;;;12.35;3.67;;;;;;;16.04;59.20;101387.91;5076537;28;20491;-89
2023/05/10 08:52:30;;;;;;;12.20;3.38;;;;;;;15.95;58.68;101386.91;5075829;28;20036;-88
2023/05/10 08:54:56;;;;;;;14.43;3.53;;;;;;;15.95;59.37;101386.03;5079132;28;20029;-90
2023/05/10 08:57:22;;;;;;;15.85;4.55;;;;;;;15.92;59.39;101370.91;5076986;28;20033;-88
2023/05/10 08:59:48;;;;;;;11.27;4.15;;;;;;;15.85;58.71;101367.03;5079308;28;20029;-88
2023/05/10 09:02:14;;;;;;;22.95;3.97;;;;;;;16.02;59.51;101382.63;5081684;28;20472;-88
2023/05/10 09:04:39;;;;;;;15.25;4.20;;;;;;;15.84;59.98;101378.88;5087422;28;20039;-84
2023/05/10 09:07:07;;;;;;;13.30;3.55;;;;;;;15.94;60.54;101404.16;5089786;28;20043;-87
2023/05/10 09:09:33;;;;;;;14.93;4.60;;;;;;;15.79;60.95;101409.13;5085006;28;20064;-87
2023/05/10 09:11:59;;;;;;;11.10;4.15;;;;;;;15.55;60.22;101376.09;5075320;28;20051;-81
2023/05/10 09:14:25;;;;;;;28.13;4.82;;;;;;;15.62;59.92;101396.25;5074049;28;20051;-86
2023/05/10 09:16:51;;;;;;;19.40;4.00;;;;;;;15.82;59.43;101390.84;5072034;28;20621;-87
2023/05/10 09:19:16;;;;;;;24.70;4.75;;;;;;;15.95;58.87;101365.19;5072669;28;20025;-88
2023/05/10 09:21:42;;;;;;;35.00;19.45;;;;;;;16.22;59.29;101394.34;5074301;28;20024;-85
2023/05/10 09:24:08;;;;;;;12.18;4.20;;;;;;;16.16;59.53;101384.91;5068214;28;20033;-79
2023/05/10 09:26:35;;;;;;;16.60;4.53;;;;;;;16.19;58.99;101381.91;5071215;28;20072;-80
2023/05/10 09:29:02;;;;;;;27.25;4.65;;;;;;;16.04;58.42;101369.78;5071324;28;20029;-79
2023/05/10 09:32:03;;;;;;;31.63;6.78;;;;;;;16.13;57.37;101387.91;5070775;28;20127;-80
2023/05/10 09:34:30;;;;;;;15.82;4.40;;;;;;;16.10;57.07;101387.34;5030718;28;20033;-80
2023/05/10 09:37:03;;;;;;;9.43;4.40;;;;;;;16.06;56.72;101392.19;5028626;28;20200;-82
2023/05/10 09:39:32;;;;;;;20.63;4.82;;;;;;;16.03;56.34;101397.91;5011307;28;20049;-79
2023/05/10 09:42:05;;;;;;;23.30;5.28;;;;;;;15.97;56.56;101374.03;5025984;28;20508;-78
2023/05/10 09:44:32;;;;;;;22.65;5.20;;;;;;;15.99;56.43;101404.59;5012800;28;20179;-79
2023/05/10 09:46:59;;;;;;;19.95;3.97;;;;;;;15.87;56.61;101394.03;5011077;28;20164;-79
2023/05/10 09:49:24;;;;;;;11.82;3.80;;;;;;;15.87;55.82;101378.59;5010224;28;20037;-79
2023/05/10 09:52:08;;;;;;;13.88;3.60;;;;;;;16.01;54.97;101390.91;5009992;28;20424;-79
2023/05/10 09:54:34;;;;;;;16.90;3.85;;;;;;;15.98;55.02;101392.03;5008992;28;20414;-79
2023/05/10 09:57:00;;;;;;;13.98;4.07;;;;;;;16.00;55.45;101397.31;5010673;28;20095;-79
2023/05/10 09:59:28;;;;;;;20.30;4.32;;;;;;;16.18;55.12;101396.47;5009228;28;20045;-81
2023/05/10 10:01:57;;;;;;;7.78;3.88;;;;;;;16.18;55.23;101393.75;5010092;28;20041;-81
2023/05/10 10:04:23;;;;;;;27.42;4.63;;;;;;;16.11;55.53;101381.78;5010318;28;20044;-79
2023/05/10 10:07:03;;;;;;;18.67;4.47;;;;;;;15.79;55.97;101371.16;5008907;28;20397;-77
2023/05/10 10:09:29;;;;;;;15.65;4.32;;;;;;;15.99;55.91;101404.59;5047133;28;20041;-80
2023/05/10 10:11:54;;;;;;;17.52;6.03;;;;;;;16.03;55.99;101388.88;5049881;28;20032;-81
2023/05/10 10:14:21;;;;;;;23.55;4.25;;;;;;;16.22;54.64;101381.63;5078343;28;20029;-84
2023/05/10 10:16:48;;;;;;;14.10;3.28;;;;;;;16.41;53.67;101382.63;5068876;28;20020;-84
2023/05/10 10:19:14;;;;;;;10.98;3.85;;;;;;;16.22;53.64;101406.06;5070980;28;20032;-78
2023/05/10 10:21:40;;;;;;;14.20;3.72;;;;;;;16.31;53.46;101393.47;5070059;28;20028;-78
2023/05/10 10:24:06;;;;;;;12.32;3.20;;;;;;;16.62;52.85;101402.34;5069755;28;20046;-78
2023/05/10 10:26:34;;;;;;;19.48;3.30;;;;;;;16.36;52.64;101384.94;5069827;28;20470;-81
2023/05/10 10:29:19;;;;;;;17.17;4.40;;;;;;;16.47;52.01;101396.50;5067696;28;20262;-80
2023/05/10 10:32:23;;;;;;;17.88;3.83;;;;;;;16.46;52.09;101407.47;5070156;28;20115;-78
2023/05/10 10:34:49;;;;;;;31.10;4.63;;;;;;;16.39;52.43;101385.47;5069849;28;20021;-82
2023/05/10 10:37:15;;;;;;;21.40;3.30;;;;;;;16.71;52.17;101407.78;5069620;28;20052;-78
2023/05/10 10:39:40;;;;;;;51.90;9.23;;;;;;;16.95;52.62;101399.16;5070684;28;20028;-79
2023/05/10 10:42:06;;;;;;;22.60;4.18;;;;;;;16.79;52.59;101393.44;5070065;28;20033;-78
2023/05/10 10:44:34;;;;;;;8.10;2.95;;;;;;;16.49;53.38;101407.19;5069543;28;20421;-80
2023/05/10 10:47:10;;;;;;;18.60;3.30;;;;;;;16.55;53.83;101395.78;5069961;28;20058;-86
2023/05/10 10:49:39;;;;;;;10.45;3.70;;;;;;;16.71;52.67;101404.19;5073964;28;20078;-85
2023/05/10 10:52:33;;;;;;;13.95;3.95;;;;;;;16.80;52.66;101403.31;5069717;28;20461;-87
2023/05/10 10:55:30;;;;;;;20.08;4.35;;;;;;;16.61;53.44;101397.91;5069378;28;20029;-85
2023/05/10 10:58:05;;;;;;;25.05;4.53;;;;;;;16.42;53.96;101395.22;5029786;28;20622;-81
2023/05/10 11:00:35;;;;;;;6.72;2.95;;;;;;;16.26;52.89;101420.22;5039210;28;20063;-88
2023/05/10 11:03:14;;;;;;;18.30;3.30;;;;;;;16.17;52.91;101418.34;5011265;28;20034;-81
2023/05/10 11:05:41;;;;;;;15.10;3.53;;;;;;;16.22;53.19;101416.06;4990424;28;20076;-83
2023/05/10 11:08:18;;;;;;;16.92;4.70;;;;;;;16.28;53.46;101413.63;5025646;28;20124;-84
2023/05/10 11:10:59;;;;;;;16.83;3.67;;;;;;;16.32;52.13;101401.50;5025555;28;20079;-84
2023/05/10 11:13:38;;;;;;;25.48;4.57;;;;;;;16.22;52.39;101416.91;5026153;28;20495;-87
2023/05/10 11:16:24;;;;;;;13.95;3.65;;;;;;;16.37;52.85;101424.63;5021871;28;20049;-85
2023/05/10 11:19:07;;;;;;;14.45;3.13;;;;;;;16.37;53.80;101414.63;4990363;28;20041;-83
2023/05/10 11:21:43;;;;;;;22.42;4.20;;;;;;;16.34;52.86;101393.19;5013737;28;20132;-84